sensor_id;sensor_type;location;lat;lon;timestamp;P1;durP1;ratioP1;P2;durP2;ratioP2
5351;SDS011;2698;51.454;6.736;2023-05-10T00:00:08;22.23;;;18.00;;
5351;SDS011;2698;51.454;6.736;2023-05-10T00:02:35;26.37;;;19.17;;
5351;SDS011;2698;51.454;6.736;2023-05-10T00:05:04;25.07;;;18.80;;
5351;SDS011;2698;51.454;6.736;2023-05-10T00:07:31;24.00;;;17.87;;
5351;SDS011;2698;51.454;6.736;2023-05-10T00:09:58;19.93;;;15.83;;
5351;SDS011;2698;51.454;6.736;2023-05-10T00:12:25;17.47;;;12.83;;
5351;SDS011;2698;51.454;6.736;2023-05-10T00:14:52;16.60;;;13.50;;
5351;SDS011;2698;51.454;6.736;2023-05-10T00:17:19;18.03;;;13.03;;
5351;SDS011;2698;51.454;6.736;2023-05-10T00:19:46;18.13;;;13.40;;
5351;SDS011;2698;51.454;6.736;2023-05-10T00:22:15;19.77;;;13.80;;
5351;SDS011;2698;51.454;6.736;2023-05-10T00:24:42;20.50;;;15.23;;
5351;SDS011;2698;51.454;6.736;2023-05-10T00:27:09;25.57;;;17.73;;
5351;SDS011;2698;51.454;6.736;2023-05-10T00:29:36;25.10;;;17.93;;
5351;SDS011;2698;51.454;6.736;2023-05-10T00:32:03;25.80;;;18.60;;
5351;SDS011;2698;51.454;6.736;2023-05-10T00:34:30;23.87;;;17.50;;
5351;SDS011;2698;51.454;6.736;2023-05-10T00:36:58;26.90;;;18.50;;
5351;SDS011;2698;51.454;6.736;2023-05-10T00:39:26;25.20;;;18.10;;
5351;SDS011;2698;51.454;6.736;2023-05-10T00:41:53;21.30;;;16.57;;
5351;SDS011;2698;51.454;6.736;2023-05-10T00:44:20;25.77;;;17.67;;
5351;SDS011;2698;51.454;6.736;2023-05-10T00:46:47;23.73;;;16.80;;
5351;SDS011;2698;51.454;6.736;2023-05-10T00:49:15;34.03;;;19.43;;
5351;SDS011;2698;51.454;6.736;2023-05-10T00:51:42;28.37;;;19.10;;
5351;SDS011;2698;51.454;6.736;2023-05-10T00:54:10;31.63;;;19.43;;
5351;SDS011;2698;51.454;6.736;2023-05-10T00:56:39;29.10;;;19.20;;
5351;SDS011;2698;51.454;6.736;2023-05-10T00:59:07;24.67;;;18.10;;
5351;SDS011;2698;51.454;6.736;2023-05-10T01:01:34;22.93;;;17.33;;
5351;SDS011;2698;51.454;6.736;2023-05-10T01:04:01;27.53;;;18.50;;
5351;SDS011;2698;51.454;6.736;2023-05-10T01:06:29;24.53;;;18.03;;
5351;SDS011;2698;51.454;6.736;2023-05-10T01:08:56;27.20;;;20.67;;
5351;SDS011;2698;51.454;6.736;2023-05-10T01:11:23;29.07;;;18.90;;
5351;SDS011;2698;51.454;6.736;2023-05-10T01:13:52;27.23;;;20.20;;
5351;SDS011;2698;51.454;6.736;2023-05-10T01:16:27;26.83;;;18.93;;
5351;SDS011;2698;51.454;6.736;2023-05-10T01:18:54;26.00;;;18.50;;
5351;SDS011;2698;51.454;6.736;2023-05-10T01:21:23;28.40;;;18.13;;
5351;SDS011;2698;51.454;6.736;2023-05-10T01:24:09;25.13;;;18.13;;
5351;SDS011;2698;51.454;6.736;2023-05-10T01:26:39;33.40;;;18.83;;
5351;SDS011;2698;51.454;6.736;2023-05-10T01:29:13;27.30;;;17.87;;
5351;SDS011;2698;51.454;6.736;2023-05-10T01:34:39;28.20;;;18.30;;
5351;SDS011;2698;51.454;6.736;2023-05-10T01:37:11;23.97;;;17.40;;
5351;SDS011;2698;51.454;6.736;2023-05-10T01:39:42;23.27;;;18.17;;
5351;SDS011;2698;51.454;6.736;2023-05-10T01:42:14;25.00;;;17.27;;
5351;SDS011;2698;51.454;6.736;2023-05-10T01:44:42;25.70;;;18.37;;
5351;SDS011;2698;51.454;6.736;2023-05-10T01:47:14;25.33;;;17.20;;
5351;SDS011;2698;51.454;6.736;2023-05-10T01:49:45;22.90;;;16.37;;
5351;SDS011;2698;51.454;6.736;2023-05-10T01:52:14;22.17;;;16.13;;
5351;SDS011;2698;51.454;6.736;2023-05-10T01:54:43;19.87;;;16.87;;
5351;SDS011;2698;51.454;6.736;2023-05-10T01:57:11;22.57;;;16.60;;
5351;SDS011;2698;51.454;6.736;2023-05-10T01:59:40;24.23;;;17.07;;
5351;SDS011;2698;51.454;6.736;2023-05-10T02:02:10;24.90;;;18.10;;
5351;SDS011;2698;51.454;6.736;2023-05-10T02:04:37;31.23;;;17.83;;
5351;SDS011;2698;51.454;6.736;2023-05-10T02:07:06;31.33;;;20.73;;
5351;SDS011;2698;51.454;6.736;2023-05-10T02:09:34;27.50;;;19.00;;
5351;SDS011;2698;51.454;6.736;2023-05-10T02:12:03;26.80;;;20.17;;
5351;SDS011;2698;51.454;6.736;2023-05-10T02:14:32;30.00;;;20.13;;
5351;SDS011;2698;51.454;6.736;2023-05-10T02:17:01;26.27;;;19.30;;
5351;SDS011;2698;51.454;6.736;2023-05-10T02:19:28;30.50;;;21.57;;
5351;SDS011;2698;51.454;6.736;2023-05-10T02:21:57;33.37;;;23.30;;
5351;SDS011;2698;51.454;6.736;2023-05-10T02:24:26;32.43;;;22.93;;
5351;SDS011;2698;51.454;6.736;2023-05-10T02:26:54;37.13;;;25.33;;
5351;SDS011;2698;51.454;6.736;2023-05-10T02:29:22;34.20;;;22.97;;
5351;SDS011;2698;51.454;6.736;2023-05-10T02:31:50;54.07;;;23.97;;
5351;SDS011;2698;51.454;6.736;2023-05-10T02:34:18;38.63;;;24.20;;
5351;SDS011;2698;51.454;6.736;2023-05-10T02:36:46;31.90;;;20.50;;
5351;SDS011;2698;51.454;6.736;2023-05-10T02:39:13;32.17;;;21.63;;
5351;SDS011;2698;51.454;6.736;2023-05-10T02:41:42;31.90;;;22.10;;
5351;SDS011;2698;51.454;6.736;2023-05-10T02:44:10;32.03;;;20.43;;
5351;SDS011;2698;51.454;6.736;2023-05-10T02:46:38;31.97;;;21.77;;
5351;SDS011;2698;51.454;6.736;2023-05-10T02:49:05;28.83;;;20.03;;
5351;SDS011;2698;51.454;6.736;2023-05-10T02:51:34;33.27;;;21.67;;
5351;SDS011;2698;51.454;6.736;2023-05-10T02:54:03;35.37;;;19.83;;
5351;SDS011;2698;51.454;6.736;2023-05-10T02:56:34;33.60;;;20.90;;
5351;SDS011;2698;51.454;6.736;2023-05-10T02:59:05;32.73;;;21.33;;
5351;SDS011;2698;51.454;6.736;2023-05-10T03:01:32;39.33;;;21.60;;
5351;SDS011;2698;51.454;6.736;2023-05-10T03:04:00;30.90;;;21.43;;
5351;SDS011;2698;51.454;6.736;2023-05-10T03:06:27;29.60;;;22.23;;
5351;SDS011;2698;51.454;6.736;2023-05-10T03:08:54;27.23;;;21.17;;
5351;SDS011;2698;51.454;6.736;2023-05-10T03:14:10;31.97;;;22.57;;
5351;SDS011;2698;51.454;6.736;2023-05-10T03:16:41;33.80;;;23.23;;
5351;SDS011;2698;51.454;6.736;2023-05-10T03:19:11;31.30;;;22.53;;
5351;SDS011;2698;51.454;6.736;2023-05-10T03:21:39;35.00;;;22.73;;
5351;SDS011;2698;51.454;6.736;2023-05-10T03:24:08;36.07;;;22.87;;
5351;SDS011;2698;51.454;6.736;2023-05-10T03:26:36;35.90;;;22.27;;
5351;SDS011;2698;51.454;6.736;2023-05-10T03:29:04;32.33;;;23.47;;
5351;SDS011;2698;51.454;6.736;2023-05-10T03:31:33;34.43;;;22.10;;
5351;SDS011;2698;51.454;6.736;2023-05-10T03:34:00;30.40;;;21.83;;
5351;SDS011;2698;51.454;6.736;2023-05-10T03:36:27;33.30;;;25.43;;
5351;SDS011;2698;51.454;6.736;2023-05-10T03:38:54;35.80;;;24.73;;
5351;SDS011;2698;51.454;6.736;2023-05-10T03:41:21;31.13;;;23.40;;
5351;SDS011;2698;51.454;6.736;2023-05-10T03:43:48;39.67;;;27.00;;
5351;SDS011;2698;51.454;6.736;2023-05-10T03:46:15;37.60;;;26.37;;
5351;SDS011;2698;51.454;6.736;2023-05-10T03:48:44;40.10;;;26.50;;
5351;SDS011;2698;51.454;6.736;2023-05-10T03:51:11;36.33;;;24.87;;
5351;SDS011;2698;51.454;6.736;2023-05-10T03:53:38;34.43;;;24.27;;
5351;SDS011;2698;51.454;6.736;2023-05-10T03:56:05;39.93;;;22.83;;
5351;SDS011;2698;51.454;6.736;2023-05-10T03:58:32;34.50;;;23.17;;
5351;SDS011;2698;51.454;6.736;2023-05-10T04:00:59;33.83;;;22.30;;
5351;SDS011;2698;51.454;6.736;2023-05-10T04:03:27;34.57;;;22.50;;
5351;SDS011;2698;51.454;6.736;2023-05-10T04:05:59;36.80;;;23.07;;
5351;SDS011;2698;51.454;6.736;2023-05-10T04:08:26;34.07;;;21.73;;
5351;SDS011;2698;51.454;6.736;2023-05-10T04:10:54;38.67;;;23.73;;
5351;SDS011;2698;51.454;6.736;2023-05-10T04:13:21;36.80;;;22.93;;
5351;SDS011;2698;51.454;6.736;2023-05-10T04:15:48;39.83;;;25.13;;
5351;SDS011;2698;51.454;6.736;2023-05-10T04:18:15;36.90;;;23.63;;
5351;SDS011;2698;51.454;6.736;2023-05-10T04:20:43;35.00;;;23.47;;
5351;SDS011;2698;51.454;6.736;2023-05-10T04:23:11;40.77;;;25.90;;
5351;SDS011;2698;51.454;6.736;2023-05-10T04:25:39;44.50;;;27.50;;
5351;SDS011;2698;51.454;6.736;2023-05-10T04:28:06;47.70;;;31.00;;
5351;SDS011;2698;51.454;6.736;2023-05-10T04:30:33;53.87;;;31.50;;
5351;SDS011;2698;51.454;6.736;2023-05-10T04:33:00;43.80;;;31.43;;
5351;SDS011;2698;51.454;6.736;2023-05-10T04:35:28;49.20;;;31.37;;
5351;SDS011;2698;51.454;6.736;2023-05-10T04:37:55;46.60;;;31.73;;
5351;SDS011;2698;51.454;6.736;2023-05-10T04:40:24;40.60;;;26.33;;
5351;SDS011;2698;51.454;6.736;2023-05-10T04:42:51;49.17;;;29.13;;
5351;SDS011;2698;51.454;6.736;2023-05-10T04:45:19;44.17;;;29.43;;
5351;SDS011;2698;51.454;6.736;2023-05-10T04:47:46;43.87;;;28.70;;
5351;SDS011;2698;51.454;6.736;2023-05-10T04:50:13;43.43;;;27.23;;
5351;SDS011;2698;51.454;6.736;2023-05-10T04:52:40;43.93;;;28.60;;
5351;SDS011;2698;51.454;6.736;2023-05-10T04:55:07;43.33;;;28.90;;
5351;SDS011;2698;51.454;6.736;2023-05-10T04:57:36;45.90;;;29.63;;
5351;SDS011;2698;51.454;6.736;2023-05-10T05:00:03;46.47;;;28.70;;
5351;SDS011;2698;51.454;6.736;2023-05-10T05:02:31;42.60;;;27.97;;
5351;SDS011;2698;51.454;6.736;2023-05-10T05:04:58;53.40;;;30.20;;
5351;SDS011;2698;51.454;6.736;2023-05-10T05:07:25;58.30;;;32.80;;
5351;SDS011;2698;51.454;6.736;2023-05-10T05:09:52;54.60;;;32.00;;
5351;SDS011;2698;51.454;6.736;2023-05-10T05:12:19;51.30;;;32.27;;
5351;SDS011;2698;51.454;6.736;2023-05-10T05:14:47;56.47;;;28.63;;
5351;SDS011;2698;51.454;6.736;2023-05-10T05:17:14;56.97;;;32.10;;
5351;SDS011;2698;51.454;6.736;2023-05-10T05:19:41;57.23;;;33.60;;
5351;SDS011;2698;51.454;6.736;2023-05-10T05:22:08;56.43;;;34.00;;
5351;SDS011;2698;51.454;6.736;2023-05-10T05:24:36;56.50;;;32.90;;
5351;SDS011;2698;51.454;6.736;2023-05-10T05:27:03;56.27;;;33.50;;
5351;SDS011;2698;51.454;6.736;2023-05-10T05:29:30;67.80;;;34.40;;
5351;SDS011;2698;51.454;6.736;2023-05-10T05:31:59;53.07;;;31.83;;
5351;SDS011;2698;51.454;6.736;2023-05-10T05:34:26;56.90;;;31.90;;
5351;SDS011;2698;51.454;6.736;2023-05-10T05:36:53;51.13;;;33.60;;
5351;SDS011;2698;51.454;6.736;2023-05-10T05:39:20;52.73;;;32.87;;
5351;SDS011;2698;51.454;6.736;2023-05-10T05:41:47;54.67;;;32.73;;
5351;SDS011;2698;51.454;6.736;2023-05-10T05:44:14;52.57;;;34.90;;
5351;SDS011;2698;51.454;6.736;2023-05-10T05:46:41;53.73;;;32.47;;
5351;SDS011;2698;51.454;6.736;2023-05-10T05:49:10;66.53;;;36.33;;
5351;SDS011;2698;51.454;6.736;2023-05-10T05:51:37;65.53;;;35.33;;
5351;SDS011;2698;51.454;6.736;2023-05-10T05:54:04;65.70;;;38.20;;
5351;SDS011;2698;51.454;6.736;2023-05-10T05:56:31;65.77;;;36.73;;
5351;SDS011;2698;51.454;6.736;2023-05-10T05:58:58;69.10;;;35.40;;
5351;SDS011;2698;51.454;6.736;2023-05-10T06:01:25;77.77;;;39.50;;
5351;SDS011;2698;51.454;6.736;2023-05-10T06:03:52;64.03;;;36.30;;
5351;SDS011;2698;51.454;6.736;2023-05-10T06:06:21;62.70;;;37.47;;
5351;SDS011;2698;51.454;6.736;2023-05-10T06:08:48;66.07;;;37.83;;
5351;SDS011;2698;51.454;6.736;2023-05-10T06:11:15;69.57;;;37.83;;
5351;SDS011;2698;51.454;6.736;2023-05-10T06:13:42;66.00;;;40.40;;
5351;SDS011;2698;51.454;6.736;2023-05-10T06:16:09;74.60;;;39.60;;
5351;SDS011;2698;51.454;6.736;2023-05-10T06:18:37;76.10;;;37.80;;
5351;SDS011;2698;51.454;6.736;2023-05-10T06:21:04;69.63;;;36.40;;
5351;SDS011;2698;51.454;6.736;2023-05-10T06:23:32;68.17;;;36.97;;
5351;SDS011;2698;51.454;6.736;2023-05-10T06:26:00;76.83;;;42.70;;
5351;SDS011;2698;51.454;6.736;2023-05-10T06:28:28;72.17;;;38.60;;
5351;SDS011;2698;51.454;6.736;2023-05-10T06:30:56;74.73;;;40.40;;
5351;SDS011;2698;51.454;6.736;2023-05-10T06:33:23;79.27;;;40.40;;
5351;SDS011;2698;51.454;6.736;2023-05-10T06:35:50;80.23;;;41.53;;
5351;SDS011;2698;51.454;6.736;2023-05-10T06:38:17;76.43;;;39.70;;
5351;SDS011;2698;51.454;6.736;2023-05-10T06:40:46;85.63;;;41.07;;
5351;SDS011;2698;51.454;6.736;2023-05-10T06:43:13;77.43;;;38.90;;
5351;SDS011;2698;51.454;6.736;2023-05-10T06:45:40;89.10;;;42.27;;
5351;SDS011;2698;51.454;6.736;2023-05-10T06:48:07;71.87;;;36.73;;
5351;SDS011;2698;51.454;6.736;2023-05-10T06:50:35;80.03;;;38.83;;
5351;SDS011;2698;51.454;6.736;2023-05-10T06:53:02;70.87;;;39.47;;
5351;SDS011;2698;51.454;6.736;2023-05-10T06:55:29;70.77;;;37.13;;
5351;SDS011;2698;51.454;6.736;2023-05-10T06:57:57;70.10;;;36.70;;
5351;SDS011;2698;51.454;6.736;2023-05-10T07:00:24;79.07;;;39.33;;
5351;SDS011;2698;51.454;6.736;2023-05-10T07:02:54;71.97;;;38.50;;
5351;SDS011;2698;51.454;6.736;2023-05-10T07:05:21;70.40;;;38.80;;
5351;SDS011;2698;51.454;6.736;2023-05-10T07:07:48;69.70;;;38.43;;
5351;SDS011;2698;51.454;6.736;2023-05-10T07:10:15;81.43;;;38.80;;
5351;SDS011;2698;51.454;6.736;2023-05-10T07:12:42;74.37;;;37.67;;
5351;SDS011;2698;51.454;6.736;2023-05-10T07:15:11;69.33;;;37.40;;
5351;SDS011;2698;51.454;6.736;2023-05-10T07:17:38;69.97;;;38.50;;
5351;SDS011;2698;51.454;6.736;2023-05-10T07:20:06;61.33;;;35.10;;
5351;SDS011;2698;51.454;6.736;2023-05-10T07:22:33;69.70;;;33.77;;
5351;SDS011;2698;51.454;6.736;2023-05-10T07:25:00;72.73;;;34.73;;
5351;SDS011;2698;51.454;6.736;2023-05-10T07:27:27;60.07;;;31.37;;
5351;SDS011;2698;51.454;6.736;2023-05-10T07:29:54;68.80;;;33.50;;
5351;SDS011;2698;51.454;6.736;2023-05-10T07:32:23;60.90;;;33.67;;
5351;SDS011;2698;51.454;6.736;2023-05-10T07:34:50;77.77;;;34.47;;
5351;SDS011;2698;51.454;6.736;2023-05-10T07:37:17;67.13;;;34.07;;
5351;SDS011;2698;51.454;6.736;2023-05-10T07:39:45;69.03;;;36.03;;
5351;SDS011;2698;51.454;6.736;2023-05-10T07:42:12;66.90;;;35.63;;
5351;SDS011;2698;51.454;6.736;2023-05-10T07:44:39;78.07;;;36.37;;
5351;SDS011;2698;51.454;6.736;2023-05-10T07:47:06;77.03;;;36.10;;
5351;SDS011;2698;51.454;6.736;2023-05-10T07:49:35;67.60;;;36.47;;
5351;SDS011;2698;51.454;6.736;2023-05-10T07:52:02;68.13;;;32.20;;
5351;SDS011;2698;51.454;6.736;2023-05-10T07:54:29;63.07;;;33.13;;
5351;SDS011;2698;51.454;6.736;2023-05-10T07:56:56;63.77;;;32.87;;
5351;SDS011;2698;51.454;6.736;2023-05-10T07:59:24;68.07;;;34.83;;
5351;SDS011;2698;51.454;6.736;2023-05-10T08:01:51;66.60;;;34.57;;
5351;SDS011;2698;51.454;6.736;2023-05-10T08:04:18;68.53;;;34.43;;
5351;SDS011;2698;51.454;6.736;2023-05-10T08:06:47;68.37;;;36.07;;
5351;SDS011;2698;51.454;6.736;2023-05-10T08:09:14;66.87;;;33.97;;
5351;SDS011;2698;51.454;6.736;2023-05-10T08:11:42;74.73;;;35.67;;
5351;SDS011;2698;51.454;6.736;2023-05-10T08:14:09;58.73;;;32.67;;
5351;SDS011;2698;51.454;6.736;2023-05-10T08:16:36;59.00;;;34.33;;
5351;SDS011;2698;51.454;6.736;2023-05-10T08:19:04;64.87;;;35.43;;
5351;SDS011;2698;51.454;6.736;2023-05-10T08:21:31;68.33;;;35.87;;
5351;SDS011;2698;51.454;6.736;2023-05-10T08:24:02;64.07;;;34.03;;
5351;SDS011;2698;51.454;6.736;2023-05-10T08:26:30;62.27;;;35.20;;
5351;SDS011;2698;51.454;6.736;2023-05-10T08:28:57;69.43;;;37.90;;
5351;SDS011;2698;51.454;6.736;2023-05-10T08:31:24;60.67;;;32.83;;
5351;SDS011;2698;51.454;6.736;2023-05-10T08:33:51;62.47;;;35.53;;
5351;SDS011;2698;51.454;6.736;2023-05-10T08:36:18;66.03;;;32.93;;
5351;SDS011;2698;51.454;6.736;2023-05-10T08:38:46;56.07;;;30.63;;
5351;SDS011;2698;51.454;6.736;2023-05-10T08:41:15;57.13;;;30.03;;
5351;SDS011;2698;51.454;6.736;2023-05-10T08:43:42;41.83;;;26.90;;
5351;SDS011;2698;51.454;6.736;2023-05-10T08:46:11;42.27;;;25.33;;
5351;SDS011;2698;51.454;6.736;2023-05-10T08:48:41;58.43;;;28.97;;
5351;SDS011;2698;51.454;6.736;2023-05-10T08:51:08;53.73;;;28.50;;
5351;SDS011;2698;51.454;6.736;2023-05-10T08:53:36;50.00;;;29.20;;
5351;SDS011;2698;51.454;6.736;2023-05-10T08:56:04;46.07;;;28.60;;
5351;SDS011;2698;51.454;6.736;2023-05-10T08:58:32;46.90;;;29.50;;
5351;SDS011;2698;51.454;6.736;2023-05-10T09:01:00;48.23;;;30.20;;
5351;SDS011;2698;51.454;6.736;2023-05-10T09:03:27;44.90;;;27.70;;
5351;SDS011;2698;51.454;6.736;2023-05-10T09:05:54;41.00;;;26.57;;
5351;SDS011;2698;51.454;6.736;2023-05-10T09:08:22;42.07;;;25.30;;
5351;SDS011;2698;51.454;6.736;2023-05-10T09:10:51;45.13;;;25.60;;
5351;SDS011;2698;51.454;6.736;2023-05-10T09:13:18;39.00;;;23.70;;
5351;SDS011;2698;51.454;6.736;2023-05-10T09:15:47;41.17;;;22.13;;
5351;SDS011;2698;51.454;6.736;2023-05-10T09:18:15;29.50;;;19.80;;
5351;SDS011;2698;51.454;6.736;2023-05-10T09:20:42;28.83;;;20.37;;
5351;SDS011;2698;51.454;6.736;2023-05-10T09:23:09;30.67;;;18.67;;
5351;SDS011;2698;51.454;6.736;2023-05-10T09:25:36;27.80;;;20.03;;
5351;SDS011;2698;51.454;6.736;2023-05-10T09:28:05;29.13;;;18.60;;
5351;SDS011;2698;51.454;6.736;2023-05-10T09:30:33;31.40;;;20.17;;
5351;SDS011;2698;51.454;6.736;2023-05-10T09:33:01;30.77;;;20.43;;
5351;SDS011;2698;51.454;6.736;2023-05-10T09:35:29;33.50;;;18.97;;
5351;SDS011;2698;51.454;6.736;2023-05-10T09:37:57;31.07;;;19.80;;
5351;SDS011;2698;51.454;6.736;2023-05-10T09:40:25;44.30;;;21.30;;
5351;SDS011;2698;51.454;6.736;2023-05-10T09:42:53;32.53;;;22.77;;
5351;SDS011;2698;51.454;6.736;2023-05-10T09:45:20;34.77;;;20.90;;
5351;SDS011;2698;51.454;6.736;2023-05-10T09:47:47;32.73;;;20.97;;
5351;SDS011;2698;51.454;6.736;2023-05-10T09:50:16;31.50;;;21.60;;
5351;SDS011;2698;51.454;6.736;2023-05-10T09:52:47;37.00;;;22.07;;
5351;SDS011;2698;51.454;6.736;2023-05-10T09:55:14;53.23;;;25.13;;
5351;SDS011;2698;51.454;6.736;2023-05-10T09:57:41;31.87;;;22.57;;
5351;SDS011;2698;51.454;6.736;2023-05-10T10:00:09;33.50;;;21.80;;
5351;SDS011;2698;51.454;6.736;2023-05-10T10:02:37;36.30;;;21.90;;
5351;SDS011;2698;51.454;6.736;2023-05-10T10:05:06;39.70;;;22.77;;
5351;SDS011;2698;51.454;6.736;2023-05-10T10:07:34;36.43;;;22.50;;
5351;SDS011;2698;51.454;6.736;2023-05-10T10:10:01;30.20;;;21.43;;
5351;SDS011;2698;51.454;6.736;2023-05-10T10:12:29;35.07;;;21.47;;
5351;SDS011;2698;51.454;6.736;2023-05-10T10:14:57;38.33;;;23.90;;
5351;SDS011;2698;51.454;6.736;2023-05-10T10:17:26;30.23;;;21.50;;
5351;SDS011;2698;51.454;6.736;2023-05-10T10:19:54;29.90;;;21.33;;
5351;SDS011;2698;51.454;6.736;2023-05-10T10:22:22;34.10;;;21.67;;
5351;SDS011;2698;51.454;6.736;2023-05-10T10:24:51;38.37;;;20.53;;
5351;SDS011;2698;51.454;6.736;2023-05-10T10:27:20;40.43;;;20.77;;
5351;SDS011;2698;51.454;6.736;2023-05-10T10:29:54;32.53;;;21.70;;
5351;SDS011;2698;51.454;6.736;2023-05-10T10:32:26;29.33;;;21.47;;
5351;SDS011;2698;51.454;6.736;2023-05-10T10:34:54;36.53;;;20.80;;
5351;SDS011;2698;51.454;6.736;2023-05-10T10:37:22;31.03;;;20.70;;
5351;SDS011;2698;51.454;6.736;2023-05-10T10:39:50;32.20;;;23.40;;
5351;SDS011;2698;51.454;6.736;2023-05-10T10:45:11;36.73;;;21.83;;
5351;SDS011;2698;51.454;6.736;2023-05-10T10:47:38;33.27;;;21.83;;
5351;SDS011;2698;51.454;6.736;2023-05-10T10:50:05;31.90;;;21.27;;
5351;SDS011;2698;51.454;6.736;2023-05-10T10:52:34;34.93;;;20.97;;
5351;SDS011;2698;51.454;6.736;2023-05-10T10:55:04;34.77;;;23.97;;
5351;SDS011;2698;51.454;6.736;2023-05-10T10:57:35;34.83;;;24.63;;
5351;SDS011;2698;51.454;6.736;2023-05-10T11:00:18;32.87;;;22.27;;
5351;SDS011;2698;51.454;6.736;2023-05-10T11:02:46;36.50;;;21.87;;
5351;SDS011;2698;51.454;6.736;2023-05-10T11:05:23;35.00;;;22.50;;
5351;SDS011;2698;51.454;6.736;2023-05-10T11:07:51;30.63;;;19.87;;
5351;SDS011;2698;51.454;6.736;2023-05-10T11:10:20;27.90;;;18.97;;
5351;SDS011;2698;51.454;6.736;2023-05-10T11:12:51;28.53;;;19.00;;
5351;SDS011;2698;51.454;6.736;2023-05-10T11:15:18;31.07;;;19.23;;
5351;SDS011;2698;51.454;6.736;2023-05-10T11:17:47;24.63;;;19.07;;
5351;SDS011;2698;51.454;6.736;2023-05-10T11:20:17;30.00;;;18.17;;
5351;SDS011;2698;51.454;6.736;2023-05-10T11:22:51;23.87;;;17.30;;
5351;SDS011;2698;51.454;6.736;2023-05-10T11:25:18;23.60;;;17.30;;
5351;SDS011;2698;51.454;6.736;2023-05-10T11:27:47;24.30;;;17.80;;
5351;SDS011;2698;51.454;6.736;2023-05-10T11:30:15;31.77;;;18.73;;
5351;SDS011;2698;51.454;6.736;2023-05-10T11:32:42;32.17;;;18.50;;
5351;SDS011;2698;51.454;6.736;2023-05-10T11:35:09;27.50;;;19.47;;
5351;SDS011;2698;51.454;6.736;2023-05-10T11:37:37;20.87;;;17.87;;
5351;SDS011;2698;51.454;6.736;2023-05-10T11:40:08;27.63;;;17.37;;
5351;SDS011;2698;51.454;6.736;2023-05-10T11:42:35;23.43;;;15.07;;
5351;SDS011;2698;51.454;6.736;2023-05-10T11:45:05;22.40;;;14.70;;
5351;SDS011;2698;51.454;6.736;2023-05-10T11:47:32;17.90;;;14.70;;
5351;SDS011;2698;51.454;6.736;2023-05-10T11:50:00;23.00;;;13.70;;
5351;SDS011;2698;51.454;6.736;2023-05-10T11:52:27;17.50;;;12.23;;
5351;SDS011;2698;51.454;6.736;2023-05-10T11:54:55;11.87;;;10.60;;
5351;SDS011;2698;51.454;6.736;2023-05-10T11:57:25;16.17;;;11.70;;
5351;SDS011;2698;51.454;6.736;2023-05-10T11:59:53;17.00;;;11.60;;
5351;SDS011;2698;51.454;6.736;2023-05-10T12:02:22;15.80;;;11.07;;
5351;SDS011;2698;51.454;6.736;2023-05-10T12:04:49;17.20;;;11.60;;
5351;SDS011;2698;51.454;6.736;2023-05-10T12:07:16;18.17;;;12.13;;
5351;SDS011;2698;51.454;6.736;2023-05-10T12:09:48;14.20;;;10.87;;
5351;SDS011;2698;51.454;6.736;2023-05-10T12:12:34;15.90;;;11.70;;
5351;SDS011;2698;51.454;6.736;2023-05-10T12:15:02;14.73;;;11.40;;
5351;SDS011;2698;51.454;6.736;2023-05-10T12:17:30;16.10;;;10.27;;
5351;SDS011;2698;51.454;6.736;2023-05-10T12:19:58;11.57;;;9.90;;
5351;SDS011;2698;51.454;6.736;2023-05-10T12:22:25;11.93;;;10.00;;
5351;SDS011;2698;51.454;6.736;2023-05-10T12:24:53;13.47;;;10.13;;
5351;SDS011;2698;51.454;6.736;2023-05-10T12:27:20;9.80;;;8.10;;
5351;SDS011;2698;51.454;6.736;2023-05-10T12:29:47;18.83;;;11.23;;
5351;SDS011;2698;51.454;6.736;2023-05-10T12:32:14;12.50;;;11.10;;
5351;SDS011;2698;51.454;6.736;2023-05-10T12:34:43;16.33;;;10.70;;
5351;SDS011;2698;51.454;6.736;2023-05-10T12:37:13;17.43;;;10.03;;
5351;SDS011;2698;51.454;6.736;2023-05-10T12:39:40;11.63;;;9.77;;
5351;SDS011;2698;51.454;6.736;2023-05-10T12:42:08;13.20;;;9.47;;
5351;SDS011;2698;51.454;6.736;2023-05-10T12:44:35;20.00;;;9.57;;
5351;SDS011;2698;51.454;6.736;2023-05-10T12:47:02;14.23;;;9.83;;
5351;SDS011;2698;51.454;6.736;2023-05-10T12:49:29;13.03;;;8.87;;
5351;SDS011;2698;51.454;6.736;2023-05-10T12:51:57;17.57;;;9.10;;
5351;SDS011;2698;51.454;6.736;2023-05-10T12:54:24;17.93;;;7.93;;
5351;SDS011;2698;51.454;6.736;2023-05-10T12:56:52;8.73;;;7.70;;
5351;SDS011;2698;51.454;6.736;2023-05-10T12:59:19;17.03;;;9.03;;
5351;SDS011;2698;51.454;6.736;2023-05-10T13:01:47;23.70;;;9.03;;
5351;SDS011;2698;51.454;6.736;2023-05-10T13:04:14;11.03;;;8.60;;
5351;SDS011;2698;51.454;6.736;2023-05-10T13:06:41;13.57;;;8.67;;
5351;SDS011;2698;51.454;6.736;2023-05-10T13:09:10;9.00;;;8.10;;
5351;SDS011;2698;51.454;6.736;2023-05-10T13:11:37;12.83;;;9.13;;
5351;SDS011;2698;51.454;6.736;2023-05-10T13:14:04;9.37;;;8.20;;
5351;SDS011;2698;51.454;6.736;2023-05-10T13:16:31;11.40;;;8.10;;
5351;SDS011;2698;51.454;6.736;2023-05-10T13:18:59;10.57;;;7.10;;
5351;SDS011;2698;51.454;6.736;2023-05-10T13:21:26;9.40;;;8.20;;
5351;SDS011;2698;51.454;6.736;2023-05-10T13:23:53;13.57;;;9.07;;
5351;SDS011;2698;51.454;6.736;2023-05-10T13:26:21;8.50;;;6.77;;
5351;SDS011;2698;51.454;6.736;2023-05-10T13:28:48;9.53;;;8.40;;
5351;SDS011;2698;51.454;6.736;2023-05-10T13:31:16;10.33;;;7.43;;
5351;SDS011;2698;51.454;6.736;2023-05-10T13:33:43;11.13;;;7.10;;
5351;SDS011;2698;51.454;6.736;2023-05-10T13:36:10;9.60;;;7.90;;
5351;SDS011;2698;51.454;6.736;2023-05-10T13:38:37;12.10;;;7.90;;
5351;SDS011;2698;51.454;6.736;2023-05-10T13:41:04;12.27;;;7.37;;
5351;SDS011;2698;51.454;6.736;2023-05-10T13:43:33;8.43;;;6.50;;
5351;SDS011;2698;51.454;6.736;2023-05-10T13:46:01;9.63;;;8.57;;
5351;SDS011;2698;51.454;6.736;2023-05-10T13:48:28;11.73;;;8.20;;
5351;SDS011;2698;51.454;6.736;2023-05-10T13:50:55;12.77;;;9.50;;
5351;SDS011;2698;51.454;6.736;2023-05-10T13:53:22;16.67;;;9.53;;
5351;SDS011;2698;51.454;6.736;2023-05-10T13:55:50;13.93;;;10.90;;
5351;SDS011;2698;51.454;6.736;2023-05-10T13:58:17;14.67;;;10.80;;
5351;SDS011;2698;51.454;6.736;2023-05-10T14:00:45;12.83;;;10.20;;
5351;SDS011;2698;51.454;6.736;2023-05-10T14:03:12;11.60;;;10.40;;
5351;SDS011;2698;51.454;6.736;2023-05-10T14:05:40;18.47;;;10.90;;
5351;SDS011;2698;51.454;6.736;2023-05-10T14:08:07;18.67;;;13.10;;
5351;SDS011;2698;51.454;6.736;2023-05-10T14:10:34;15.73;;;12.50;;
5351;SDS011;2698;51.454;6.736;2023-05-10T14:13:03;11.20;;;10.07;;
5351;SDS011;2698;51.454;6.736;2023-05-10T14:15:30;11.93;;;9.57;;
5351;SDS011;2698;51.454;6.736;2023-05-10T14:17:58;19.13;;;10.47;;
5351;SDS011;2698;51.454;6.736;2023-05-10T14:20:25;13.50;;;10.20;;
5351;SDS011;2698;51.454;6.736;2023-05-10T14:22:52;12.23;;;10.73;;
5351;SDS011;2698;51.454;6.736;2023-05-10T14:25:19;12.20;;;10.50;;
5351;SDS011;2698;51.454;6.736;2023-05-10T14:27:46;14.50;;;10.53;;
5351;SDS011;2698;51.454;6.736;2023-05-10T14:30:14;10.23;;;8.13;;
5351;SDS011;2698;51.454;6.736;2023-05-10T14:32:41;8.13;;;7.20;;
5351;SDS011;2698;51.454;6.736;2023-05-10T14:35:09;11.80;;;7.87;;
5351;SDS011;2698;51.454;6.736;2023-05-10T14:37:37;8.73;;;7.83;;
5351;SDS011;2698;51.454;6.736;2023-05-10T14:40:05;13.17;;;10.47;;
5351;SDS011;2698;51.454;6.736;2023-05-10T14:42:32;13.33;;;10.97;;
5351;SDS011;2698;51.454;6.736;2023-05-10T14:44:59;17.83;;;13.10;;
5351;SDS011;2698;51.454;6.736;2023-05-10T14:47:26;17.57;;;13.90;;
5351;SDS011;2698;51.454;6.736;2023-05-10T14:49:54;17.47;;;14.23;;
5351;SDS011;2698;51.454;6.736;2023-05-10T14:52:22;17.93;;;13.70;;
5351;SDS011;2698;51.454;6.736;2023-05-10T14:54:49;22.40;;;16.50;;
5351;SDS011;2698;51.454;6.736;2023-05-10T14:57:16;24.77;;;17.13;;
5351;SDS011;2698;51.454;6.736;2023-05-10T14:59:43;25.90;;;16.70;;
5351;SDS011;2698;51.454;6.736;2023-05-10T15:02:10;18.70;;;16.43;;